createdAt,value
2018-12-29T00:03:33.454Z,9.20
2018-12-29T00:06:15.977Z,9.10
2018-12-29T00:08:58.668Z,9.10
2018-12-29T00:11:42.482Z,9.10
2018-12-29T00:14:25.104Z,9.10
2018-12-29T00:17:08.565Z,9.20
2018-12-29T00:19:50.539Z,9.10
2018-12-29T00:22:33.747Z,9.20
2018-12-29T00:25:16.459Z,9.10
2018-12-29T00:27:59.037Z,9.10
2018-12-29T00:30:41.962Z,9.10
2018-12-29T00:33:25.152Z,9.10
2018-12-29T00:36:07.808Z,9.10
2018-12-29T00:38:50.304Z,9.10
2018-12-29T00:41:33.023Z,9.20
2018-12-29T00:44:14.876Z,9.10
2018-12-29T00:46:57.343Z,9.10
2018-12-29T00:49:39.802Z,9.10
2018-12-29T00:52:21.757Z,9.10
2018-12-29T00:55:04.615Z,9.10
2018-12-29T00:57:47.067Z,9.10
2018-12-29T01:00:29.751Z,9.10
2018-12-29T01:03:12.389Z,9.10
2018-12-29T01:05:54.804Z,9.10
2018-12-29T01:08:37.359Z,9.10
2018-12-29T01:11:19.963Z,9.10
2018-12-29T01:14:03.433Z,9.10
2018-12-29T01:16:45.912Z,9.10
2018-12-29T01:19:28.540Z,9.10
2018-12-29T01:22:10.802Z,9.10
2018-12-29T01:24:53.487Z,9.10
2018-12-29T01:27:37.047Z,9.10
2018-12-29T01:30:19.579Z,9.10
2018-12-29T01:33:01.888Z,9.10
2018-12-29T01:35:44.593Z,9.10
2018-12-29T01:38:27.224Z,9.10
2018-12-29T01:41:09.116Z,9.10
2018-12-29T01:43:51.629Z,9.10
2018-12-29T01:46:34.424Z,9.10
2018-12-29T01:49:16.952Z,9.10
2018-12-29T01:51:59.563Z,9.10
2018-12-29T01:54:42.133Z,9.10
2018-12-29T01:57:24.735Z,9.10
2018-12-29T02:00:07.290Z,9.10
2018-12-29T02:02:49.949Z,9.10
2018-12-29T02:05:32.523Z,9.10
2018-12-29T02:08:15.056Z,9.10
2018-12-29T02:10:57.804Z,9.10
2018-12-29T02:13:40.361Z,9.10
2018-12-29T02:16:22.588Z,9.10
2018-12-29T02:19:05.302Z,9.10
2018-12-29T02:21:47.964Z,9.10
2018-12-29T02:24:30.710Z,9.10
2018-12-29T02:27:14.196Z,9.10
2018-12-29T02:29:56.872Z,9.10
2018-12-29T02:32:39.266Z,9.10
2018-12-29T02:35:21.049Z,9.10
2018-12-29T02:38:03.688Z,9.00
2018-12-29T02:40:46.303Z,9.00
2018-12-29T02:43:28.967Z,9.00
2018-12-29T02:46:11.509Z,9.00
2018-12-29T02:48:53.969Z,9.00
2018-12-29T02:51:36.772Z,8.90
2018-12-29T02:54:19.420Z,8.90
2018-12-29T02:57:01.992Z,8.90
2018-12-29T02:59:45.170Z,8.80
2018-12-29T03:02:28.039Z,8.80
2018-12-29T03:05:10.560Z,8.80
2018-12-29T03:07:52.697Z,8.80
2018-12-29T03:10:35.085Z,8.80
2018-12-29T03:13:17.142Z,8.80
2018-12-29T03:15:59.717Z,8.80
2018-12-29T03:18:42.433Z,8.80
2018-12-29T03:21:24.743Z,8.80
2018-12-29T03:24:07.356Z,8.80
2018-12-29T03:26:49.772Z,8.80
2018-12-29T03:29:32.236Z,8.80
2018-12-29T03:32:14.627Z,8.80
2018-12-29T03:34:57.407Z,8.80
2018-12-29T03:37:39.955Z,8.80
2018-12-29T03:40:22.657Z,8.80
2018-12-29T03:43:05.132Z,8.80
2018-12-29T03:45:49.261Z,8.80
2018-12-29T03:48:31.494Z,8.80
2018-12-29T03:51:13.956Z,8.90
2018-12-29T03:53:58.453Z,8.80
2018-12-29T03:56:41.199Z,8.80
2018-12-29T03:59:23.867Z,8.80
2018-12-29T04:02:06.369Z,8.90
2018-12-29T04:04:48.769Z,8.90
2018-12-29T04:07:32.093Z,8.90
2018-12-29T04:10:14.586Z,8.90
2018-12-29T04:12:57.393Z,8.90
2018-12-29T04:15:39.971Z,8.90
2018-12-29T04:18:22.429Z,8.90
2018-12-29T04:21:04.983Z,8.90
2018-12-29T04:23:47.689Z,8.90
2018-12-29T04:26:30.418Z,9.00
2018-12-29T04:29:13.124Z,8.90
2018-12-29T04:31:55.876Z,9.00
2018-12-29T04:34:38.312Z,9.00
2018-12-29T04:37:20.665Z,9.00
2018-12-29T04:40:03.109Z,9.00
2018-12-29T04:42:45.951Z,9.00
2018-12-29T04:45:28.313Z,9.00
2018-12-29T04:48:10.620Z,9.00
2018-12-29T04:50:52.613Z,9.00
2018-12-29T04:53:35.156Z,9.00
2018-12-29T04:56:17.265Z,9.00
2018-12-29T04:58:59.448Z,9.00
2018-12-29T05:01:41.379Z,9.00
2018-12-29T05:04:23.804Z,9.00
2018-12-29T05:07:06.124Z,9.00
2018-12-29T05:09:48.644Z,9.00
2018-12-29T05:12:31.511Z,9.00
2018-12-29T05:15:13.813Z,9.00
2018-12-29T05:17:56.433Z,9.00
2018-12-29T05:20:38.883Z,9.00
2018-12-29T05:23:21.414Z,9.00
2018-12-29T05:28:44.742Z,9.00
2018-12-29T05:31:27.235Z,9.00
2018-12-29T05:34:09.653Z,9.00
2018-12-29T05:36:52.139Z,9.00
2018-12-29T05:39:34.268Z,9.00
2018-12-29T05:42:16.792Z,9.00
2018-12-29T05:45:03.787Z,9.00
2018-12-29T05:47:45.659Z,9.00
2018-12-29T05:50:27.998Z,9.00
2018-12-29T05:53:10.488Z,9.00
2018-12-29T05:55:54.145Z,9.00
2018-12-29T05:58:36.780Z,9.00
2018-12-29T06:01:19.348Z,9.00
2018-12-29T06:04:01.625Z,9.00
2018-12-29T06:06:44.114Z,9.00
2018-12-29T06:09:26.296Z,9.00
2018-12-29T06:12:09.058Z,8.90
2018-12-29T06:14:51.800Z,8.70
2018-12-29T06:17:33.948Z,8.70
2018-12-29T06:20:16.672Z,8.60
2018-12-29T06:22:59.299Z,8.60
2018-12-29T06:25:42.044Z,8.50
2018-12-29T06:28:24.475Z,8.50
2018-12-29T06:31:07.020Z,8.50
2018-12-29T06:33:49.548Z,8.50
2018-12-29T06:36:32.313Z,8.60
2018-12-29T06:39:18.847Z,8.60
2018-12-29T06:42:01.613Z,8.50
2018-12-29T06:44:44.240Z,8.40
2018-12-29T06:47:26.583Z,8.40
2018-12-29T06:50:10.884Z,8.40
2018-12-29T06:52:53.381Z,8.40
2018-12-29T06:55:36.995Z,8.40
2018-12-29T06:58:19.743Z,8.40
2018-12-29T07:01:02.141Z,8.30
2018-12-29T07:03:46.712Z,8.40
2018-12-29T07:06:30.799Z,8.40
2018-12-29T07:09:13.343Z,8.30
2018-12-29T07:11:56.084Z,8.40
2018-12-29T07:14:38.734Z,8.40
2018-12-29T07:17:21.310Z,8.40
2018-12-29T07:20:03.880Z,8.30
2018-12-29T07:22:46.651Z,8.40
2018-12-29T07:25:29.345Z,8.40
2018-12-29T07:28:12.170Z,8.30
2018-12-29T07:30:54.748Z,8.30
2018-12-29T07:33:37.471Z,8.30
2018-12-29T07:36:19.968Z,8.30
2018-12-29T07:39:02.762Z,8.20
2018-12-29T07:41:45.315Z,8.20
2018-12-29T07:44:27.173Z,8.20
2018-12-29T07:47:09.712Z,8.20
2018-12-29T07:49:52.437Z,8.20
2018-12-29T07:52:34.297Z,8.30
2018-12-29T07:55:17.204Z,8.30
2018-12-29T07:57:59.461Z,8.30
2018-12-29T08:00:41.987Z,8.40
2018-12-29T08:03:24.447Z,8.40
2018-12-29T08:06:07.177Z,8.50
2018-12-29T08:08:49.850Z,8.50
2018-12-29T08:11:32.467Z,8.60
2018-12-29T08:14:15.124Z,8.70
2018-12-29T08:16:57.703Z,8.70
2018-12-29T08:19:40.301Z,8.80
2018-12-29T08:22:24.070Z,8.80
2018-12-29T08:25:06.374Z,8.80
2018-12-29T08:27:49.096Z,8.80
2018-12-29T08:30:31.550Z,8.90
2018-12-29T08:33:14.030Z,8.90
2018-12-29T08:35:56.490Z,8.90
2018-12-29T08:38:39.256Z,8.90
2018-12-29T08:41:21.808Z,9.00
2018-12-29T08:44:04.256Z,9.00
2018-12-29T08:46:46.556Z,9.00
2018-12-29T08:49:28.667Z,9.00
2018-12-29T08:52:10.950Z,9.10
2018-12-29T08:54:53.448Z,9.00
2018-12-29T08:57:36.012Z,9.10
2018-12-29T09:00:18.604Z,9.10
2018-12-29T09:03:02.041Z,9.10
2018-12-29T09:05:44.691Z,9.10
2018-12-29T09:08:27.132Z,9.20
2018-12-29T09:11:09.825Z,9.20
2018-12-29T09:13:52.306Z,9.20
2018-12-29T09:16:34.851Z,9.20
2018-12-29T09:19:17.094Z,9.20
2018-12-29T09:21:59.748Z,9.20
2018-12-29T09:24:42.351Z,9.30
2018-12-29T09:27:25.120Z,9.30
2018-12-29T09:30:07.551Z,9.30
2018-12-29T09:32:50.143Z,9.30
2018-12-29T09:35:32.751Z,9.30
2018-12-29T09:38:15.195Z,9.30
2018-12-29T09:40:57.795Z,9.40
2018-12-29T09:43:40.277Z,9.40
2018-12-29T09:46:22.452Z,9.40
2018-12-29T09:49:05.038Z,9.40
2018-12-29T09:51:47.644Z,9.40
2018-12-29T09:54:29.940Z,9.50
2018-12-29T09:57:12.583Z,9.50
2018-12-29T09:59:55.309Z,9.50
2018-12-29T10:02:37.736Z,9.50
2018-12-29T10:05:20.574Z,9.50
2018-12-29T10:08:04.425Z,9.50
2018-12-29T10:10:46.624Z,9.50
2018-12-29T10:13:29.228Z,9.50
2018-12-29T10:16:11.876Z,9.50
2018-12-29T10:18:54.266Z,9.50
2018-12-29T10:21:42.185Z,9.50
2018-12-29T10:24:24.792Z,9.50
2018-12-29T10:27:07.528Z,9.50
2018-12-29T10:29:49.645Z,9.50
2018-12-29T10:32:31.676Z,9.50
2018-12-29T10:35:14.327Z,9.50
2018-12-29T10:37:57.131Z,9.50
2018-12-29T10:40:39.754Z,9.40
2018-12-29T10:43:22.303Z,9.50
2018-12-29T10:46:05.508Z,9.40
2018-12-29T10:48:48.227Z,9.40
2018-12-29T10:51:31.748Z,9.40
2018-12-29T10:54:14.201Z,9.40
2018-12-29T10:56:56.003Z,9.40
2018-12-29T10:59:38.169Z,9.40
2018-12-29T11:02:20.507Z,9.40
2018-12-29T11:05:03.236Z,9.40
2018-12-29T11:07:45.751Z,9.40
2018-12-29T11:10:28.651Z,9.40
2018-12-29T11:13:10.699Z,9.40
2018-12-29T11:15:53.552Z,9.40
2018-12-29T11:18:36.057Z,9.40
2018-12-29T11:21:18.416Z,9.40
2018-12-29T11:24:01.232Z,9.30
2018-12-29T11:26:43.907Z,9.30
2018-12-29T11:29:26.341Z,9.30
2018-12-29T11:32:09.019Z,9.30
2018-12-29T11:34:51.519Z,9.30
2018-12-29T11:37:34.440Z,9.30
2018-12-29T11:40:16.961Z,9.30
2018-12-29T11:42:59.663Z,9.30
2018-12-29T11:45:42.145Z,9.30
2018-12-29T11:48:24.724Z,9.30
2018-12-29T11:51:06.945Z,9.30
2018-12-29T11:53:49.539Z,9.20
2018-12-29T11:56:32.243Z,9.20
2018-12-29T11:59:14.843Z,9.20
2018-12-29T12:01:57.571Z,9.10
2018-12-29T12:04:40.140Z,9.10
2018-12-29T12:07:22.751Z,9.10
2018-12-29T12:10:05.608Z,9.10
2018-12-29T12:12:48.243Z,9.10
2018-12-29T12:15:31.956Z,9.10
2018-12-29T12:18:13.875Z,9.10
2018-12-29T12:20:56.161Z,9.10
2018-12-29T12:23:38.627Z,9.20
2018-12-29T12:26:21.306Z,9.20
2018-12-29T12:29:03.276Z,9.30
2018-12-29T12:31:45.976Z,9.30
2018-12-29T12:34:28.916Z,9.30
2018-12-29T12:37:11.931Z,9.30
2018-12-29T12:39:54.448Z,9.30
2018-12-29T12:42:36.859Z,9.30
2018-12-29T12:45:18.709Z,9.30
2018-12-29T12:48:05.017Z,9.30
2018-12-29T12:50:44.628Z,9.30
2018-12-29T12:53:26.796Z,9.30
2018-12-29T12:56:09.527Z,9.30
2018-12-29T12:58:52.188Z,9.30
2018-12-29T13:01:35.208Z,9.30
2018-12-29T13:04:18.026Z,9.30
2018-12-29T13:06:59.843Z,9.30
2018-12-29T13:09:42.671Z,9.30
2018-12-29T13:12:25.613Z,9.40
2018-12-29T13:15:08.353Z,9.40
2018-12-29T13:17:50.632Z,9.40
2018-12-29T13:20:33.284Z,9.40
2018-12-29T13:23:16.015Z,9.40
2018-12-29T13:25:58.256Z,9.30
2018-12-29T13:28:40.928Z,9.30
2018-12-29T13:31:23.475Z,9.30
2018-12-29T13:34:06.213Z,9.30
2018-12-29T13:36:48.703Z,9.30
2018-12-29T13:39:30.644Z,9.30
2018-12-29T13:42:19.295Z,9.30
2018-12-29T13:45:02.648Z,9.30
2018-12-29T13:47:46.196Z,9.30
2018-12-29T13:50:30.812Z,9.30
2018-12-29T13:53:13.477Z,9.40
2018-12-29T13:55:55.891Z,9.40
2018-12-29T13:58:38.308Z,9.40
2018-12-29T14:01:22.061Z,9.40
2018-12-29T14:04:04.564Z,9.50
2018-12-29T14:06:47.163Z,9.50
2018-12-29T14:09:29.794Z,9.60
2018-12-29T14:12:12.164Z,9.60
2018-12-29T14:14:55.195Z,9.60
2018-12-29T14:17:38.195Z,9.70
2018-12-29T14:20:21.024Z,9.70
2018-12-29T14:23:03.587Z,9.70
2018-12-29T14:25:46.494Z,9.70
2018-12-29T14:28:38.205Z,9.70
2018-12-29T14:31:33.873Z,9.70
2018-12-29T14:34:16.799Z,9.70
2018-12-29T14:36:58.668Z,9.70
2018-12-29T14:39:41.315Z,9.70
2018-12-29T14:42:23.571Z,9.70
2018-12-29T14:45:06.394Z,9.80
2018-12-29T14:47:49.029Z,9.80
2018-12-29T14:50:31.632Z,9.80
2018-12-29T14:53:13.650Z,9.80
2018-12-29T14:55:56.273Z,9.80
2018-12-29T14:58:38.929Z,9.80
2018-12-29T15:01:21.456Z,9.80
2018-12-29T15:04:04.107Z,9.80
2018-12-29T15:06:46.635Z,9.80
2018-12-29T15:09:29.491Z,9.80
2018-12-29T15:12:12.198Z,9.80
2018-12-29T15:14:54.523Z,9.80
2018-12-29T15:17:37.102Z,9.80
2018-12-29T15:20:21.068Z,9.80
2018-12-29T15:23:03.636Z,9.90
2018-12-29T15:25:46.264Z,9.90
2018-12-29T15:28:28.727Z,10.00
2018-12-29T15:31:11.301Z,10.00
2018-12-29T15:33:53.733Z,10.00
2018-12-29T15:36:36.561Z,10.00
2018-12-29T15:39:19.218Z,10.10
2018-12-29T15:42:02.091Z,10.10
2018-12-29T15:44:44.591Z,10.20
2018-12-29T15:47:27.287Z,10.20
2018-12-29T15:50:09.688Z,10.20
2018-12-29T15:52:52.283Z,10.20
2018-12-29T15:55:34.540Z,10.20
2018-12-29T15:58:17.106Z,10.20
2018-12-29T16:00:59.700Z,10.30
2018-12-29T16:03:42.392Z,10.30
2018-12-29T16:06:26.087Z,10.30
2018-12-29T16:09:08.367Z,10.30
2018-12-29T16:11:51.450Z,10.30
2018-12-29T16:14:35.495Z,10.30
2018-12-29T16:17:16.922Z,10.30
2018-12-29T16:19:59.946Z,10.40
2018-12-29T16:22:41.722Z,10.30
2018-12-29T16:25:24.297Z,10.40
2018-12-29T16:28:06.610Z,10.40
2018-12-29T16:30:49.076Z,10.40
2018-12-29T16:33:31.636Z,10.40
2018-12-29T16:36:14.107Z,10.40
2018-12-29T16:38:56.505Z,10.30
2018-12-29T16:41:39.158Z,10.30
2018-12-29T16:44:21.585Z,10.30
2018-12-29T16:47:04.323Z,10.30
2018-12-29T16:49:47.441Z,10.30
2018-12-29T16:52:30.367Z,10.30
2018-12-29T16:55:13.298Z,10.40
2018-12-29T16:57:55.243Z,10.30
2018-12-29T17:00:37.895Z,10.40
2018-12-29T17:03:20.436Z,10.30
2018-12-29T17:06:03.200Z,10.30
2018-12-29T17:08:45.990Z,10.30
2018-12-29T17:11:28.464Z,10.30
2018-12-29T17:14:12.799Z,10.30
2018-12-29T17:16:55.591Z,10.20
2018-12-29T17:19:38.238Z,10.20
2018-12-29T17:22:20.168Z,10.20
2018-12-29T17:25:02.721Z,10.10
2018-12-29T17:27:45.129Z,10.10
2018-12-29T17:30:27.868Z,10.10
2018-12-29T17:33:10.527Z,10.10
2018-12-29T17:35:54.344Z,10.10
2018-12-29T17:38:37.123Z,10.00
2018-12-29T17:41:19.775Z,10.00
2018-12-29T17:44:02.420Z,10.00
2018-12-29T17:46:46.169Z,10.00
2018-12-29T17:49:28.875Z,9.90
2018-12-29T17:52:11.160Z,9.90
2018-12-29T17:54:53.605Z,9.90
2018-12-29T17:57:36.208Z,9.90
2018-12-29T18:00:18.845Z,9.80
2018-12-29T18:03:01.236Z,9.80
2018-12-29T18:05:47.903Z,9.70
2018-12-29T18:08:30.605Z,9.70
2018-12-29T18:11:13.177Z,9.60
2018-12-29T18:16:55.991Z,9.50
2018-12-29T18:19:38.551Z,9.60
2018-12-29T18:22:20.907Z,9.60
2018-12-29T18:25:03.431Z,9.60
2018-12-29T18:27:45.949Z,9.60
2018-12-29T18:30:29.060Z,9.60
2018-12-29T18:33:11.916Z,9.60
2018-12-29T18:35:54.237Z,9.60
2018-12-29T18:38:37.428Z,9.70
2018-12-29T18:41:20.090Z,9.60
2018-12-29T18:44:02.566Z,9.60
2018-12-29T18:46:44.947Z,9.50
2018-12-29T18:49:27.759Z,9.40
2018-12-29T18:52:10.132Z,9.40
2018-12-29T18:54:52.651Z,9.40
2018-12-29T18:57:36.192Z,9.40
2018-12-29T19:00:19.688Z,9.30
2018-12-29T19:03:03.104Z,9.30
2018-12-29T19:05:45.709Z,9.40
2018-12-29T19:08:29.003Z,9.30
2018-12-29T19:11:15.583Z,9.30
2018-12-29T19:14:04.446Z,9.40
2018-12-29T19:16:46.580Z,9.40
2018-12-29T19:19:29.078Z,9.40
2018-12-29T19:22:11.731Z,9.30
2018-12-29T19:24:53.968Z,9.30
2018-12-29T19:27:40.815Z,9.30
2018-12-29T19:30:23.656Z,9.30
2018-12-29T19:33:06.343Z,9.30
2018-12-29T19:35:48.951Z,9.30
2018-12-29T19:38:31.964Z,9.30
2018-12-29T19:41:14.495Z,9.40
2018-12-29T19:43:57.240Z,9.30
2018-12-29T19:46:39.805Z,9.30
2018-12-29T19:49:22.587Z,9.30
2018-12-29T19:52:05.047Z,9.40
2018-12-29T19:54:47.351Z,9.30
2018-12-29T19:57:30.445Z,9.30
2018-12-29T20:00:13.124Z,9.30
2018-12-29T20:02:56.035Z,9.30
2018-12-29T20:05:43.727Z,9.30
2018-12-29T20:08:26.080Z,9.30
2018-12-29T20:11:09.383Z,9.30
2018-12-29T20:13:51.925Z,9.30
2018-12-29T20:16:34.542Z,9.30
2018-12-29T20:19:16.823Z,9.30
2018-12-29T20:21:59.579Z,9.30
2018-12-29T20:24:41.688Z,9.30
2018-12-29T20:27:23.893Z,9.30
2018-12-29T20:30:06.682Z,9.30
2018-12-29T20:32:48.600Z,9.30
2018-12-29T20:35:30.470Z,9.30
2018-12-29T20:38:13.131Z,9.30
2018-12-29T20:40:55.723Z,9.30
2018-12-29T20:43:38.464Z,9.30
2018-12-29T20:46:21.330Z,9.30
2018-12-29T20:49:05.001Z,9.30
2018-12-29T20:51:48.182Z,9.30
2018-12-29T20:54:32.773Z,9.30
2018-12-29T20:57:15.117Z,9.20
2018-12-29T20:59:57.623Z,9.10
2018-12-29T21:02:40.279Z,9.20
2018-12-29T21:05:22.462Z,9.20
2018-12-29T21:08:04.683Z,9.20
2018-12-29T21:10:49.154Z,9.20
2018-12-29T21:13:31.850Z,9.20
2018-12-29T21:16:14.715Z,9.20
2018-12-29T21:18:57.418Z,9.20
2018-12-29T21:21:40.361Z,9.20
2018-12-29T21:24:22.169Z,9.20
2018-12-29T21:27:05.507Z,9.30
2018-12-29T21:29:48.212Z,9.20
2018-12-29T21:32:30.966Z,9.20
2018-12-29T21:35:13.829Z,9.20
2018-12-29T21:37:56.086Z,9.20
2018-12-29T21:40:38.902Z,9.20
2018-12-29T21:43:21.639Z,9.20
2018-12-29T21:46:03.540Z,9.20
2018-12-29T21:48:46.359Z,9.20
2018-12-29T21:51:28.805Z,9.10
2018-12-29T21:54:11.526Z,9.20
2018-12-29T21:56:55.159Z,9.10
2018-12-29T21:59:37.583Z,9.20
2018-12-29T22:02:20.293Z,9.10
2018-12-29T22:05:02.718Z,9.20
2018-12-29T22:07:44.566Z,9.20
2018-12-29T22:10:26.447Z,9.20
2018-12-29T22:13:09.083Z,9.20
2018-12-29T22:15:51.882Z,9.20
2018-12-29T22:18:34.667Z,9.10
2018-12-29T22:21:17.466Z,9.20
2018-12-29T22:23:59.888Z,9.10
2018-12-29T22:26:42.463Z,9.10
2018-12-29T22:29:25.271Z,9.10
2018-12-29T22:32:07.671Z,9.10
2018-12-29T22:34:50.287Z,9.10
2018-12-29T22:37:32.852Z,9.10
2018-12-29T22:40:15.756Z,9.20
2018-12-29T22:42:58.203Z,9.10
2018-12-29T22:45:40.599Z,9.10
2018-12-29T22:48:22.574Z,9.10
2018-12-29T22:51:06.267Z,9.00
2018-12-29T22:53:48.683Z,9.00
2018-12-29T22:56:31.136Z,9.00
2018-12-29T22:59:13.668Z,9.00
2018-12-29T23:01:56.152Z,9.00
2018-12-29T23:04:38.701Z,9.00
2018-12-29T23:07:20.744Z,9.00
2018-12-29T23:10:03.552Z,9.10
2018-12-29T23:12:46.312Z,9.10
2018-12-29T23:15:28.519Z,9.10
2018-12-29T23:18:11.180Z,9.10
2018-12-29T23:20:53.831Z,9.10
2018-12-29T23:23:36.131Z,9.10
2018-12-29T23:26:18.835Z,9.10
2018-12-29T23:29:01.436Z,9.10
2018-12-29T23:31:43.668Z,9.10
2018-12-29T23:34:26.356Z,9.10
2018-12-29T23:37:08.383Z,9.10
2018-12-29T23:39:51.124Z,9.00
2018-12-29T23:42:33.901Z,9.10
2018-12-29T23:45:16.381Z,9.00
2018-12-29T23:47:58.815Z,9.00
2018-12-29T23:50:41.171Z,9.00
2018-12-29T23:53:23.680Z,9.00
2018-12-29T23:56:06.548Z,9.10
2018-12-29T23:58:50.090Z,9.00
